Terminal Aerodrome Forecast
Issued by NWS Huntsville, AL

Home | Current Version | Previous Version | Text Only | Print | Product List | Glossary On
Versions: 1 2 3 4 5 6 7 8 9 10 11 12 13 14 15 16 17 18 19 20 21 22 23 24 25 26 27
000
FTUS44 KHUN 292322
TAFMSL
TAF
KMSL 292322Z 3000/3024 31010G15KT P6SM SCT040 OVC070
     FM300400 35009KT P6SM OVC035
      TEMPO 3008/3012 OVC015
     FM301600 01010G15KT P6SM SCT070 SCT250=

USA.gov is the U.S. government's official web portal to all federal, state and local government web resources and services.